createdAt,value
2022-07-29T00:00:45.390Z,101728.69
2022-07-29T00:03:20.163Z,101727.06
2022-07-29T00:05:54.053Z,101723.88
2022-07-29T00:08:26.895Z,101716.72
2022-07-29T00:10:59.623Z,101718.69
2022-07-29T00:13:33.172Z,101720.63
2022-07-29T00:16:06.399Z,101724.63
2022-07-29T00:18:40.676Z,101716.56
2022-07-29T00:21:13.344Z,101716.84
2022-07-29T00:23:46.070Z,101710.06
2022-07-29T00:26:18.872Z,101720.03
2022-07-29T00:28:51.588Z,101712.13
2022-07-29T00:31:24.274Z,101710.88
2022-07-29T00:33:58.538Z,101707.00
2022-07-29T00:36:30.451Z,101713.03
2022-07-29T00:39:03.185Z,101701.81
2022-07-29T00:41:35.881Z,101703.81
2022-07-29T00:44:08.586Z,101712.13
2022-07-29T00:46:41.298Z,101701.94
2022-07-29T00:49:15.621Z,101701.06
2022-07-29T00:51:50.364Z,101696.25
2022-07-29T00:54:23.173Z,101689.91
2022-07-29T00:56:55.862Z,101693.13
2022-07-29T00:59:34.648Z,101696.34
2022-07-29T01:02:08.467Z,101695.16
2022-07-29T01:04:43.186Z,101689.91
2022-07-29T01:07:16.517Z,101686.81
2022-07-29T01:09:49.652Z,101690.78
2022-07-29T01:12:25.028Z,101683.78
2022-07-29T01:14:58.406Z,101690.03
2022-07-29T01:17:35.538Z,101679.75
2022-07-29T01:20:15.803Z,101682.13
2022-07-29T01:23:10.417Z,101673.38
2022-07-29T01:25:56.294Z,101670.94
2022-07-29T01:28:51.440Z,101671.78
2022-07-29T01:31:56.584Z,101667.09
2022-07-29T01:34:41.530Z,101658.88
2022-07-29T01:37:28.204Z,101670.38
2022-07-29T01:40:03.926Z,101666.47
2022-07-29T01:42:41.257Z,101666.31
2022-07-29T01:45:18.932Z,101661.59
2022-07-29T01:47:58.658Z,101663.63
2022-07-29T01:50:36.577Z,101658.19
2022-07-29T01:53:14.683Z,101660.06
2022-07-29T01:55:48.627Z,101659.38
2022-07-29T01:58:22.654Z,101650.50
2022-07-29T02:00:59.379Z,101652.19
2022-07-29T02:03:34.623Z,101645.03
2022-07-29T02:06:09.143Z,101645.13
2022-07-29T02:08:43.831Z,101647.56
2022-07-29T02:11:16.885Z,101637.94
2022-07-29T02:13:50.843Z,101642.81
2022-07-29T02:16:28.852Z,101646.69
2022-07-29T02:19:04.397Z,101647.31
2022-07-29T02:21:37.971Z,101651.50
2022-07-29T02:24:14.190Z,101646.59
2022-07-29T02:26:47.879Z,101648.69
2022-07-29T02:29:23.353Z,101651.25
2022-07-29T02:31:59.194Z,101648.47
2022-07-29T02:34:33.002Z,101652.81
2022-07-29T02:37:06.214Z,101644.38
2022-07-29T02:39:41.041Z,101647.63
2022-07-29T02:42:16.714Z,101641.31
2022-07-29T02:44:49.665Z,101647.25
2022-07-29T02:47:25.430Z,101635.75
2022-07-29T02:50:02.459Z,101629.81
2022-07-29T02:52:40.856Z,101630.97
2022-07-29T02:55:18.791Z,101631.06
2022-07-29T02:57:56.844Z,101627.50
2022-07-29T03:00:31.755Z,101642.13
2022-07-29T03:03:10.907Z,101635.00
2022-07-29T03:05:46.450Z,101632.22
2022-07-29T03:08:19.359Z,101626.38
2022-07-29T03:10:53.265Z,101630.50
2022-07-29T03:13:27.129Z,101627.22
2022-07-29T03:16:00.904Z,101622.56
2022-07-29T03:18:35.717Z,101623.44
2022-07-29T03:21:08.478Z,101618.53
2022-07-29T03:23:46.187Z,101623.34
2022-07-29T03:26:19.025Z,101627.31
2022-07-29T03:28:51.700Z,101623.47
2022-07-29T03:31:24.513Z,101622.63
2022-07-29T03:33:59.338Z,101625.81
2022-07-29T03:36:32.196Z,101628.25
2022-07-29T03:39:06.545Z,101626.56
2022-07-29T03:41:42.662Z,101625.38
2022-07-29T03:44:17.728Z,101634.91
2022-07-29T03:46:55.168Z,101632.66
2022-07-29T03:49:30.026Z,101631.03
2022-07-29T03:52:02.873Z,101623.94
2022-07-29T03:54:35.985Z,101626.66
2022-07-29T03:57:10.167Z,101633.09
2022-07-29T03:59:43.700Z,101631.13
2022-07-29T04:02:21.857Z,101631.03
2022-07-29T04:04:57.187Z,101627.13
2022-07-29T04:07:30.709Z,101634.00
2022-07-29T04:10:03.460Z,101631.28
2022-07-29T04:12:36.799Z,101630.94
2022-07-29T04:15:10.217Z,101630.78
2022-07-29T04:17:43.052Z,101632.38
2022-07-29T04:20:17.094Z,101634.06
2022-07-29T04:22:49.740Z,101632.59
2022-07-29T04:25:22.674Z,101626.59
2022-07-29T04:28:04.252Z,101636.56
2022-07-29T04:30:39.060Z,101633.25
2022-07-29T04:33:11.805Z,101627.31
2022-07-29T04:35:50.185Z,101624.50
2022-07-29T04:38:23.870Z,101637.28
2022-07-29T04:40:56.556Z,101630.16
2022-07-29T04:43:29.416Z,101636.56
2022-07-29T04:46:09.499Z,101642.91
2022-07-29T04:48:42.281Z,101645.28
2022-07-29T04:51:18.086Z,101649.34
2022-07-29T04:53:50.804Z,101645.75
2022-07-29T04:56:23.558Z,101646.50
2022-07-29T04:58:56.666Z,101650.88
2022-07-29T05:01:29.608Z,101646.88
2022-07-29T05:04:02.112Z,101653.69
2022-07-29T05:06:37.464Z,101650.97
2022-07-29T05:09:10.274Z,101651.41
2022-07-29T05:11:42.989Z,101650.69
2022-07-29T05:14:17.021Z,101649.47
2022-07-29T05:16:51.972Z,101648.63
2022-07-29T05:19:25.317Z,101644.56
2022-07-29T05:22:00.949Z,101642.25
2022-07-29T05:24:33.690Z,101643.03
2022-07-29T05:27:06.451Z,101646.13
2022-07-29T05:29:44.891Z,101643.00
2022-07-29T05:32:18.282Z,101654.03
2022-07-29T05:34:51.901Z,101656.44
2022-07-29T05:37:26.055Z,101659.22
2022-07-29T05:39:59.112Z,101655.28
2022-07-29T05:42:32.120Z,101656.84
2022-07-29T05:45:06.008Z,101657.53
2022-07-29T05:47:38.773Z,101657.91
2022-07-29T05:50:11.546Z,101660.78
2022-07-29T05:52:45.561Z,101653.25
2022-07-29T05:55:18.437Z,101665.09
2022-07-29T05:57:51.166Z,101664.69
2022-07-29T06:00:24.061Z,101663.22
2022-07-29T06:02:57.718Z,101662.75
2022-07-29T06:05:30.391Z,101665.22
2022-07-29T06:08:06.662Z,101666.38
2022-07-29T06:10:39.653Z,101671.13
2022-07-29T06:13:12.312Z,101673.06
2022-07-29T06:15:45.727Z,101675.44
2022-07-29T06:18:19.175Z,101673.91
2022-07-29T06:20:51.933Z,101678.69
2022-07-29T06:23:25.976Z,101676.31
2022-07-29T06:25:58.975Z,101677.75
2022-07-29T06:28:31.550Z,101677.75
2022-07-29T06:31:04.576Z,101669.06
2022-07-29T06:33:37.340Z,101676.97
2022-07-29T06:36:10.675Z,101670.19
2022-07-29T06:38:51.171Z,101677.66
2022-07-29T06:41:24.721Z,101679.22
2022-07-29T06:43:57.402Z,101676.25
2022-07-29T06:46:30.299Z,101671.47
2022-07-29T06:49:03.410Z,101675.25
2022-07-29T06:51:36.015Z,101666.72
2022-07-29T06:54:10.061Z,101674.81
2022-07-29T06:56:44.015Z,101669.31
2022-07-29T06:59:16.788Z,101680.50
2022-07-29T07:01:49.595Z,101676.03
2022-07-29T07:04:22.473Z,101683.94
2022-07-29T07:06:56.584Z,101686.09
2022-07-29T07:09:39.872Z,101694.41
2022-07-29T07:12:14.689Z,101697.06
2022-07-29T07:14:47.372Z,101699.34
2022-07-29T07:17:20.590Z,101695.41
2022-07-29T07:19:53.353Z,101704.44
2022-07-29T07:22:26.140Z,101692.63
2022-07-29T07:25:00.150Z,101695.72
2022-07-29T07:27:32.960Z,101697.28
2022-07-29T07:30:07.615Z,101704.41
2022-07-29T07:32:40.352Z,101697.06
2022-07-29T07:35:13.233Z,101701.91
2022-07-29T07:37:46.041Z,101699.72
2022-07-29T07:40:20.192Z,101698.88
2022-07-29T07:42:52.962Z,101695.09
2022-07-29T07:45:26.021Z,101696.28
2022-07-29T07:47:58.807Z,101699.63
2022-07-29T07:50:31.573Z,101700.38
2022-07-29T07:53:04.839Z,101693.75
2022-07-29T07:58:37.189Z,101698.78
2022-07-29T08:01:10.151Z,101696.50
2022-07-29T08:03:42.757Z,101696.44
2022-07-29T08:06:15.448Z,101700.13
2022-07-29T08:08:48.314Z,101699.03
2022-07-29T08:11:22.982Z,101696.56
2022-07-29T08:13:55.767Z,101697.91
2022-07-29T08:16:29.114Z,101700.28
2022-07-29T08:19:02.096Z,101705.75
2022-07-29T08:21:34.872Z,101700.81
2022-07-29T08:24:26.392Z,101699.56
2022-07-29T08:27:00.469Z,101696.50
2022-07-29T08:29:33.272Z,101709.38
2022-07-29T08:32:12.099Z,101701.44
2022-07-29T08:34:47.085Z,101707.50
2022-07-29T08:37:19.793Z,101706.00
2022-07-29T08:39:52.482Z,101700.72
2022-07-29T08:42:26.777Z,101700.19
2022-07-29T08:45:00.461Z,101702.56
2022-07-29T08:47:33.189Z,101712.97
2022-07-29T08:50:06.575Z,101702.34
2022-07-29T08:52:40.706Z,101708.66
2022-07-29T08:55:14.339Z,101711.47
2022-07-29T08:57:54.188Z,101706.97
2022-07-29T09:00:31.045Z,101717.38
2022-07-29T09:03:06.122Z,101712.31
2022-07-29T09:05:47.509Z,101719.63
2022-07-29T09:08:21.341Z,101714.94
2022-07-29T09:10:54.436Z,101711.38
2022-07-29T09:13:28.593Z,101717.28
2022-07-29T09:16:05.662Z,101703.22
2022-07-29T09:18:43.271Z,101695.72
2022-07-29T09:21:36.398Z,101706.25
2022-07-29T09:24:10.611Z,101707.13
2022-07-29T09:26:45.416Z,101703.78
2022-07-29T09:29:21.219Z,101699.78
2022-07-29T09:31:55.514Z,101702.22
2022-07-29T09:34:32.206Z,101701.38
2022-07-29T09:37:05.917Z,101695.91
2022-07-29T09:39:46.480Z,101710.03
2022-07-29T09:42:30.077Z,101706.28
2022-07-29T09:45:04.567Z,101708.00
2022-07-29T09:47:46.082Z,101706.16
2022-07-29T09:50:24.513Z,101704.41
2022-07-29T09:52:57.205Z,101698.69
2022-07-29T09:55:30.105Z,101699.75
2022-07-29T09:58:18.198Z,101702.63
2022-07-29T10:00:55.690Z,101707.41
2022-07-29T10:03:29.043Z,101704.28
2022-07-29T10:06:09.518Z,101709.88
2022-07-29T10:08:44.536Z,101698.75
2022-07-29T10:11:19.008Z,101703.38
2022-07-29T10:13:51.853Z,101705.06
2022-07-29T10:16:28.208Z,101704.72
2022-07-29T10:19:02.138Z,101702.34
2022-07-29T10:21:36.609Z,101706.16
2022-07-29T10:24:15.079Z,101704.16
2022-07-29T10:26:48.929Z,101703.09
2022-07-29T10:29:21.732Z,101701.97
2022-07-29T10:32:08.595Z,101704.75
2022-07-29T10:35:08.644Z,101699.31
2022-07-29T10:37:56.953Z,101699.59
2022-07-29T10:40:58.702Z,101695.69
2022-07-29T10:43:36.937Z,101693.16
2022-07-29T10:46:11.903Z,101697.25
2022-07-29T10:49:11.445Z,101696.78
2022-07-29T10:52:01.899Z,101696.47
2022-07-29T10:54:51.457Z,101702.59
2022-07-29T10:57:53.882Z,101696.31
2022-07-29T11:00:32.048Z,101700.25
2022-07-29T11:03:10.827Z,101697.72
2022-07-29T11:05:59.910Z,101688.66
2022-07-29T11:08:32.833Z,101692.41
2022-07-29T11:11:51.582Z,101706.56
2022-07-29T11:14:59.133Z,101694.75
2022-07-29T11:17:37.549Z,101692.63
2022-07-29T11:20:36.592Z,101699.72
2022-07-29T11:23:24.443Z,101701.69
2022-07-29T11:26:18.812Z,101703.38
2022-07-29T11:29:01.634Z,101697.56
2022-07-29T11:31:37.302Z,101695.44
2022-07-29T11:34:21.647Z,101700.00
2022-07-29T11:37:28.001Z,101693.31
2022-07-29T11:40:14.773Z,101698.16
2022-07-29T11:42:50.217Z,101706.78
2022-07-29T11:45:43.713Z,101709.44
2022-07-29T11:48:28.982Z,101708.19
2022-07-29T11:51:12.344Z,101695.16
2022-07-29T11:53:49.145Z,101700.50
2022-07-29T11:56:31.617Z,101706.13
2022-07-29T11:59:08.483Z,101706.91
2022-07-29T12:02:06.648Z,101708.34
2022-07-29T12:04:53.792Z,101712.13
2022-07-29T12:07:35.063Z,101715.88
2022-07-29T12:10:11.504Z,101715.00
2022-07-29T12:12:54.612Z,101711.81
2022-07-29T12:15:46.202Z,101723.19
2022-07-29T12:18:24.031Z,101724.50
2022-07-29T12:21:03.251Z,101736.78
2022-07-29T12:23:37.054Z,101731.63
2022-07-29T12:26:10.668Z,101724.41
2022-07-29T12:28:47.153Z,101725.84
2022-07-29T12:31:44.051Z,101730.28
2022-07-29T12:34:13.103Z,101734.75
2022-07-29T12:36:46.374Z,101719.00
2022-07-29T12:39:20.102Z,101732.94
2022-07-29T12:41:53.381Z,101734.38
2022-07-29T12:44:48.845Z,101738.19
2022-07-29T12:47:22.301Z,101728.66
2022-07-29T12:50:10.814Z,101731.31
2022-07-29T12:52:43.845Z,101734.63
2022-07-29T12:55:16.691Z,101731.81
2022-07-29T12:57:51.634Z,101732.63
2022-07-29T13:00:26.500Z,101732.31
2022-07-29T13:03:00.743Z,101735.47
2022-07-29T13:05:49.161Z,101732.56
2022-07-29T13:08:22.747Z,101731.81
2022-07-29T13:10:55.790Z,101739.06
2022-07-29T13:13:28.510Z,101739.66
2022-07-29T13:16:09.981Z,101740.38
2022-07-29T13:18:42.769Z,101741.16
2022-07-29T13:21:18.849Z,101737.84
2022-07-29T13:23:51.969Z,101743.53
2022-07-29T13:26:24.709Z,101738.13
2022-07-29T13:28:57.617Z,101736.84
2022-07-29T13:31:32.095Z,101744.31
2022-07-29T13:34:05.190Z,101741.22
2022-07-29T13:36:41.556Z,101737.09
2022-07-29T13:39:14.437Z,101737.06
2022-07-29T13:41:47.370Z,101741.00
2022-07-29T13:44:22.239Z,101749.78
2022-07-29T13:46:56.758Z,101747.44
2022-07-29T13:49:30.200Z,101740.97
2022-07-29T13:52:03.051Z,101736.88
2022-07-29T13:54:41.952Z,101740.72
2022-07-29T13:57:16.421Z,101739.94
2022-07-29T13:59:53.733Z,101737.38
2022-07-29T14:02:28.644Z,101742.50
2022-07-29T14:05:05.063Z,101736.03
2022-07-29T14:07:40.954Z,101740.72
2022-07-29T14:10:17.245Z,101743.81
2022-07-29T14:12:52.766Z,101736.53
2022-07-29T14:15:26.292Z,101741.22
2022-07-29T14:18:00.382Z,101732.94
2022-07-29T14:20:33.516Z,101747.97
2022-07-29T14:23:06.257Z,101731.66
2022-07-29T14:25:39.395Z,101743.28
2022-07-29T14:28:14.807Z,101742.22
2022-07-29T14:30:49.207Z,101752.88
2022-07-29T14:33:23.278Z,101747.19
2022-07-29T14:35:56.382Z,101748.25
2022-07-29T14:38:34.458Z,101738.88
2022-07-29T14:41:07.846Z,101746.34
2022-07-29T14:43:40.624Z,101748.19
2022-07-29T14:46:13.602Z,101745.03
2022-07-29T14:48:47.829Z,101740.63
2022-07-29T14:51:21.007Z,101739.56
2022-07-29T14:53:53.765Z,101741.66
2022-07-29T14:56:46.551Z,101741.53
2022-07-29T14:59:19.910Z,101747.19
2022-07-29T15:01:52.786Z,101737.81
2022-07-29T15:04:26.959Z,101738.66
2022-07-29T15:06:59.827Z,101739.19
2022-07-29T15:09:32.646Z,101738.41
2022-07-29T15:12:11.361Z,101743.84
2022-07-29T15:14:44.366Z,101741.53
2022-07-29T15:17:17.861Z,101744.81
2022-07-29T15:19:53.421Z,101744.56
2022-07-29T15:22:26.612Z,101745.31
2022-07-29T15:24:59.395Z,101748.19
2022-07-29T15:27:32.155Z,101749.22
2022-07-29T15:30:06.020Z,101745.09
2022-07-29T15:32:38.922Z,101742.47
2022-07-29T15:35:13.222Z,101750.78
2022-07-29T15:37:48.592Z,101742.25
2022-07-29T15:40:22.287Z,101743.78
2022-07-29T15:42:55.016Z,101752.59
2022-07-29T15:45:31.691Z,101746.91
2022-07-29T15:48:07.029Z,101737.56
2022-07-29T15:50:41.183Z,101737.09
2022-07-29T15:53:13.947Z,101742.25
2022-07-29T15:55:46.684Z,101738.41
2022-07-29T15:58:19.551Z,101737.13
2022-07-29T16:00:52.346Z,101739.94
2022-07-29T16:03:25.363Z,101738.66
2022-07-29T16:05:59.418Z,101728.81
2022-07-29T16:08:32.193Z,101734.78
2022-07-29T16:11:04.920Z,101731.91
2022-07-29T16:13:37.628Z,101740.84
2022-07-29T16:16:11.476Z,101731.59
2022-07-29T16:18:44.612Z,101726.66
2022-07-29T16:21:18.724Z,101735.31
2022-07-29T16:23:51.466Z,101736.56
2022-07-29T16:26:24.118Z,101733.59
2022-07-29T16:28:56.731Z,101731.78
2022-07-29T16:31:29.709Z,101733.72
2022-07-29T16:34:02.861Z,101734.16
2022-07-29T16:36:36.864Z,101731.00
2022-07-29T16:39:11.866Z,101735.03
2022-07-29T16:41:44.532Z,101735.13
2022-07-29T16:44:17.221Z,101733.56
2022-07-29T16:46:50.700Z,101731.88
2022-07-29T16:49:29.238Z,101734.03
2022-07-29T16:52:03.261Z,101732.50
2022-07-29T16:54:35.977Z,101738.06
2022-07-29T16:57:08.676Z,101737.47
2022-07-29T16:59:43.617Z,101731.59
2022-07-29T17:02:16.454Z,101735.31
2022-07-29T17:04:49.295Z,101736.84
2022-07-29T17:07:23.622Z,101737.75
2022-07-29T17:09:59.504Z,101744.56
2022-07-29T17:12:37.254Z,101743.50
2022-07-29T17:15:12.388Z,101741.50
2022-07-29T17:17:56.387Z,101733.75
2022-07-29T17:20:29.730Z,101745.06
2022-07-29T17:23:03.954Z,101740.53
2022-07-29T17:25:36.627Z,101748.38
2022-07-29T17:28:09.184Z,101745.03
2022-07-29T17:30:41.899Z,101746.09
2022-07-29T17:33:14.629Z,101741.84
2022-07-29T17:36:06.128Z,101750.03
2022-07-29T17:38:40.207Z,101746.19
2022-07-29T17:41:13.447Z,101749.81
2022-07-29T17:43:46.242Z,101744.16
2022-07-29T17:46:20.956Z,101744.63
2022-07-29T17:48:54.466Z,101742.25
2022-07-29T17:51:27.918Z,101745.16
2022-07-29T17:54:02.003Z,101741.59
2022-07-29T17:56:34.867Z,101749.75
2022-07-29T17:59:09.955Z,101743.63
2022-07-29T18:01:42.807Z,101758.25
2022-07-29T18:04:20.118Z,101753.41
2022-07-29T18:06:52.949Z,101744.72
2022-07-29T18:09:27.065Z,101748.88
2022-07-29T18:11:59.914Z,101742.59
2022-07-29T18:14:32.502Z,101742.59
2022-07-29T18:17:05.196Z,101748.72
2022-07-29T18:19:37.868Z,101750.13
2022-07-29T18:22:13.504Z,101744.78
2022-07-29T18:24:47.488Z,101748.22
2022-07-29T18:27:20.320Z,101753.25
2022-07-29T18:29:53.330Z,101753.56
2022-07-29T18:32:28.814Z,101744.78
2022-07-29T18:35:05.054Z,101747.25
2022-07-29T18:38:01.383Z,101747.31
2022-07-29T18:40:32.588Z,101757.22
2022-07-29T18:43:05.690Z,101758.97
2022-07-29T18:45:39.478Z,101766.63
2022-07-29T18:48:13.259Z,101770.97
2022-07-29T18:50:46.620Z,101766.78
2022-07-29T18:53:19.398Z,101773.53
2022-07-29T18:55:56.296Z,101772.56
2022-07-29T18:58:33.193Z,101775.69
2022-07-29T19:01:05.975Z,101790.34
2022-07-29T19:03:38.943Z,101793.22
2022-07-29T19:06:11.457Z,101804.19
2022-07-29T19:08:44.183Z,101800.50
2022-07-29T19:11:18.080Z,101807.38
2022-07-29T19:13:51.009Z,101809.97
2022-07-29T19:16:23.811Z,101815.59
2022-07-29T19:18:56.641Z,101817.75
2022-07-29T19:21:29.636Z,101819.97
2022-07-29T19:24:07.769Z,101825.53
2022-07-29T19:26:46.716Z,101822.47
2022-07-29T19:29:19.504Z,101831.91
2022-07-29T19:31:53.584Z,101835.75
2022-07-29T19:34:26.354Z,101837.78
2022-07-29T19:36:59.199Z,101834.84
2022-07-29T19:39:35.396Z,101836.97
2022-07-29T19:42:10.153Z,101840.50
2022-07-29T19:44:43.771Z,101848.88
2022-07-29T19:47:17.286Z,101844.19
2022-07-29T19:49:50.369Z,101846.28
2022-07-29T19:52:23.095Z,101846.84
2022-07-29T19:54:56.003Z,101846.94
2022-07-29T19:57:37.874Z,101853.41
2022-07-29T20:00:15.241Z,101847.03
2022-07-29T20:02:48.215Z,101846.75
2022-07-29T20:05:21.132Z,101846.13
2022-07-29T20:08:00.943Z,101842.38
2022-07-29T20:10:34.843Z,101844.38
2022-07-29T20:13:09.023Z,101848.38
2022-07-29T20:15:41.953Z,101846.28
2022-07-29T20:18:15.696Z,101836.31
2022-07-29T20:20:49.690Z,101847.41
2022-07-29T20:23:23.240Z,101846.97
2022-07-29T20:25:56.101Z,101844.59
2022-07-29T20:28:30.992Z,101836.78
2022-07-29T20:31:03.980Z,101838.22
2022-07-29T20:33:36.651Z,101834.38
2022-07-29T20:36:09.417Z,101835.06
2022-07-29T20:38:42.151Z,101829.53
2022-07-29T20:41:15.327Z,101831.81
2022-07-29T20:43:49.834Z,101827.72
2022-07-29T20:46:23.858Z,101826.25
2022-07-29T20:48:56.715Z,101825.47
2022-07-29T20:51:29.373Z,101819.94
2022-07-29T20:54:02.665Z,101825.47
2022-07-29T20:56:35.449Z,101826.75
2022-07-29T20:59:09.732Z,101820.66
2022-07-29T21:01:42.530Z,101831.66
2022-07-29T21:04:16.585Z,101834.66
2022-07-29T21:06:49.491Z,101832.06
2022-07-29T21:09:22.061Z,101825.03
2022-07-29T21:11:54.755Z,101841.59
2022-07-29T21:14:47.547Z,101832.16
2022-07-29T21:17:22.396Z,101836.97
2022-07-29T21:19:55.465Z,101837.69
2022-07-29T21:22:28.183Z,101836.31
2022-07-29T21:25:01.647Z,101833.25
2022-07-29T21:28:06.790Z,101830.97
2022-07-29T21:30:40.862Z,101832.81
2022-07-29T21:33:13.631Z,101831.91
2022-07-29T21:36:14.901Z,101833.25
2022-07-29T21:38:39.492Z,101838.91
2022-07-29T21:41:14.803Z,101835.94
2022-07-29T21:43:47.635Z,101843.09
2022-07-29T21:46:21.799Z,101843.97
2022-07-29T21:48:57.753Z,101849.66
2022-07-29T21:51:30.541Z,101855.25
2022-07-29T21:54:04.354Z,101868.03
2022-07-29T21:56:37.105Z,101860.22
2022-07-29T21:59:12.695Z,101858.31
2022-07-29T22:01:47.090Z,101867.56
2022-07-29T22:04:19.957Z,101863.72
2022-07-29T22:06:52.812Z,101869.41
2022-07-29T22:09:26.154Z,101868.59
2022-07-29T22:11:58.837Z,101876.66
2022-07-29T22:14:31.969Z,101880.31
2022-07-29T22:17:06.959Z,101876.81
2022-07-29T22:19:41.107Z,101873.63
2022-07-29T22:22:13.900Z,101873.63
2022-07-29T22:24:46.841Z,101871.88
2022-07-29T22:27:19.468Z,101872.03
2022-07-29T22:29:52.578Z,101880.88
2022-07-29T22:32:26.921Z,101877.72
2022-07-29T22:34:59.706Z,101880.53
2022-07-29T22:37:32.875Z,101877.38
2022-07-29T22:40:06.868Z,101874.16
2022-07-29T22:42:40.835Z,101870.38
2022-07-29T22:45:13.871Z,101875.16
2022-07-29T22:47:48.776Z,101873.56
2022-07-29T22:50:22.051Z,101869.56
2022-07-29T22:52:54.784Z,101867.28
2022-07-29T22:55:27.453Z,101863.69
2022-07-29T22:58:00.128Z,101868.78
2022-07-29T23:00:33.040Z,101872.22
2022-07-29T23:03:07.059Z,101868.00
2022-07-29T23:05:39.967Z,101871.13
2022-07-29T23:08:12.556Z,101879.63
2022-07-29T23:10:45.370Z,101876.38
2022-07-29T23:13:18.226Z,101868.69
2022-07-29T23:15:51.122Z,101869.22
2022-07-29T23:18:25.034Z,101867.13
2022-07-29T23:20:57.744Z,101862.06
2022-07-29T23:23:32.516Z,101861.66
2022-07-29T23:26:05.450Z,101860.44
2022-07-29T23:28:38.123Z,101859.00
2022-07-29T23:31:10.936Z,101859.00
2022-07-29T23:33:44.922Z,101853.81
2022-07-29T23:36:19.748Z,101857.78
2022-07-29T23:38:52.430Z,101855.50
2022-07-29T23:41:29.461Z,101854.06
2022-07-29T23:44:02.210Z,101854.06
2022-07-29T23:46:34.966Z,101852.06
2022-07-29T23:49:09.190Z,101849.66
2022-07-29T23:51:42.194Z,101853.09
2022-07-29T23:54:14.760Z,101856.25
2022-07-29T23:56:47.498Z,101842.28
2022-07-29T23:59:20.264Z,101850.66
